createdAt,value
2018-12-17T00:00:34.906Z,0
2018-12-17T00:01:34.892Z,0
2018-12-17T00:02:34.878Z,0
2018-12-17T00:03:34.619Z,0
2018-12-17T00:04:34.858Z,0
2018-12-17T00:05:41.549Z,0
2018-12-17T00:06:34.829Z,0
2018-12-17T00:07:34.802Z,0
2018-12-17T00:08:41.536Z,0
2018-12-17T00:09:34.815Z,0
2018-12-17T00:10:34.745Z,0
2018-12-17T00:11:34.730Z,0
2018-12-17T00:12:34.715Z,0
2018-12-17T00:13:34.704Z,0
2018-12-17T00:14:34.440Z,0
2018-12-17T00:15:34.669Z,0
2018-12-17T00:16:34.647Z,0
2018-12-17T00:17:34.392Z,0
2018-12-17T00:18:34.678Z,0
2018-12-17T00:19:34.605Z,0
2018-12-17T00:20:34.588Z,0
2018-12-17T00:21:34.332Z,0
2018-12-17T00:22:34.561Z,0
2018-12-17T00:23:34.538Z,0
2018-12-17T00:24:34.527Z,0
2018-12-17T00:25:34.518Z,0
2018-12-17T00:26:34.493Z,0
2018-12-17T00:27:34.474Z,0
2018-12-17T00:28:34.465Z,0
2018-12-17T00:29:34.473Z,0
2018-12-17T00:30:34.197Z,0
2018-12-17T00:31:34.413Z,0
2018-12-17T00:32:34.399Z,0
2018-12-17T00:33:34.381Z,0
2018-12-17T00:34:34.370Z,0
2018-12-17T00:35:34.358Z,0
2018-12-17T00:36:34.338Z,0
2018-12-17T00:37:34.319Z,0
2018-12-17T00:38:34.308Z,0
2018-12-17T00:39:34.589Z,0
2018-12-17T00:40:34.282Z,0
2018-12-17T00:41:34.260Z,0
2018-12-17T00:42:34.242Z,0
2018-12-17T00:43:34.228Z,0
2018-12-17T00:44:33.969Z,0
2018-12-17T00:45:34.194Z,0
2018-12-17T00:46:34.178Z,0
2018-12-17T00:47:34.230Z,0
2018-12-17T00:48:34.149Z,0
2018-12-17T00:49:34.129Z,0
2018-12-17T00:50:34.117Z,0
2018-12-17T00:51:34.098Z,0
2018-12-17T00:52:34.152Z,0
2018-12-17T00:53:34.073Z,0
2018-12-17T00:54:34.063Z,0
2018-12-17T00:55:34.041Z,0
2018-12-17T00:56:34.022Z,0
2018-12-17T00:57:34.004Z,0
2018-12-17T00:58:33.754Z,0
2018-12-17T00:59:33.975Z,0
2018-12-17T01:00:33.959Z,0
2018-12-17T01:01:33.943Z,0
2018-12-17T01:02:33.936Z,0
2018-12-17T01:03:33.915Z,0
2018-12-17T01:04:33.906Z,0
2018-12-17T01:05:33.885Z,0
2018-12-17T01:06:33.866Z,0
2018-12-17T01:07:33.849Z,0
2018-12-17T01:08:33.836Z,0
2018-12-17T01:09:33.823Z,0
2018-12-17T01:10:33.803Z,0
2018-12-17T01:11:33.785Z,0
2018-12-17T01:12:33.768Z,0
2018-12-17T01:13:33.762Z,0
2018-12-17T01:14:33.736Z,0
2018-12-17T01:15:33.725Z,0
2018-12-17T01:16:33.724Z,0
2018-12-17T01:17:33.692Z,0
2018-12-17T01:18:33.679Z,0
2018-12-17T01:19:33.657Z,0
2018-12-17T01:20:33.701Z,0
2018-12-17T01:21:33.665Z,0
2018-12-17T01:22:33.611Z,0
2018-12-17T01:23:33.631Z,0
2018-12-17T01:24:33.584Z,0
2018-12-17T01:25:33.565Z,0
2018-12-17T01:26:33.549Z,0
2018-12-17T01:27:33.534Z,0
2018-12-17T01:28:33.520Z,0
2018-12-17T01:29:33.502Z,0
2018-12-17T01:30:33.488Z,0
2018-12-17T01:31:33.476Z,0
2018-12-17T01:32:33.453Z,0
2018-12-17T01:33:33.437Z,0
2018-12-17T01:34:33.424Z,0
2018-12-17T01:35:33.422Z,0
2018-12-17T01:36:33.393Z,0
2018-12-17T01:37:33.375Z,0
2018-12-17T01:38:33.371Z,0
2018-12-17T01:39:33.107Z,0
2018-12-17T01:40:33.330Z,0
2018-12-17T01:41:33.324Z,0
2018-12-17T01:42:33.304Z,0
2018-12-17T01:43:33.288Z,0
2018-12-17T01:44:33.272Z,0
2018-12-17T01:45:33.014Z,0
2018-12-17T01:46:33.243Z,0
2018-12-17T01:47:33.229Z,0
2018-12-17T01:48:33.211Z,0
2018-12-17T01:49:33.189Z,0
2018-12-17T01:50:33.176Z,0
2018-12-17T01:51:33.166Z,0
2018-12-17T01:52:33.146Z,0
2018-12-17T01:53:33.124Z,0
2018-12-17T01:54:33.110Z,0
2018-12-17T01:55:33.094Z,0
2018-12-17T01:56:33.082Z,0
2018-12-17T01:57:33.065Z,0
2018-12-17T01:58:38.756Z,0
2018-12-17T01:59:33.041Z,0
2018-12-17T02:00:33.021Z,0
2018-12-17T02:01:33.002Z,0
2018-12-17T02:02:32.986Z,0
2018-12-17T02:03:32.976Z,0
2018-12-17T02:04:32.980Z,0
2018-12-17T02:05:32.948Z,0
2018-12-17T02:06:32.937Z,0
2018-12-17T02:07:32.928Z,0
2018-12-17T02:08:32.898Z,0
2018-12-17T02:09:32.878Z,0
2018-12-17T02:10:32.866Z,0
2018-12-17T02:11:32.854Z,0
2018-12-17T02:12:32.847Z,0
2018-12-17T02:13:32.814Z,0
2018-12-17T02:14:32.801Z,0
2018-12-17T02:15:32.784Z,0
2018-12-17T02:16:32.768Z,0
2018-12-17T02:17:32.753Z,0
2018-12-17T02:18:32.736Z,0
2018-12-17T02:19:32.727Z,0
2018-12-17T02:20:32.719Z,0
2018-12-17T02:21:32.766Z,0
2018-12-17T02:22:32.676Z,0
2018-12-17T02:23:32.414Z,0
2018-12-17T02:24:32.659Z,0
2018-12-17T02:25:32.623Z,0
2018-12-17T02:26:32.617Z,0
2018-12-17T02:27:32.683Z,0
2018-12-17T02:28:38.625Z,0
2018-12-17T02:29:32.571Z,0
2018-12-17T02:30:32.557Z,0
2018-12-17T02:31:32.544Z,0
2018-12-17T02:32:32.529Z,0
2018-12-17T02:33:32.509Z,0
2018-12-17T02:34:32.489Z,0
2018-12-17T02:35:34.630Z,0
2018-12-17T02:36:32.456Z,0
2018-12-17T02:37:32.443Z,0
2018-12-17T02:38:32.425Z,0
2018-12-17T02:39:32.161Z,0
2018-12-17T02:40:32.161Z,0
2018-12-17T02:41:32.380Z,0
2018-12-17T02:42:32.543Z,0
2018-12-17T02:43:32.342Z,0
2018-12-17T02:44:32.335Z,0
2018-12-17T02:45:32.311Z,0
2018-12-17T02:46:32.362Z,0
2018-12-17T02:47:32.276Z,0
2018-12-17T02:48:32.257Z,0
2018-12-17T02:49:32.288Z,0
2018-12-17T02:50:32.226Z,0
2018-12-17T02:51:32.221Z,0
2018-12-17T02:52:32.204Z,0
2018-12-17T02:53:32.190Z,0
2018-12-17T02:54:32.178Z,0
2018-12-17T02:55:32.153Z,0
2018-12-17T02:56:32.153Z,0
2018-12-17T02:57:32.489Z,0
2018-12-17T02:58:32.096Z,0
2018-12-17T02:59:32.081Z,0
2018-12-17T03:00:32.100Z,0
2018-12-17T03:01:32.087Z,0
2018-12-17T03:02:32.086Z,0
2018-12-17T03:03:32.017Z,0
2018-12-17T03:04:32.018Z,0
2018-12-17T03:05:31.990Z,0
2018-12-17T03:06:31.725Z,0
2018-12-17T03:07:31.955Z,0
2018-12-17T03:08:31.959Z,0
2018-12-17T03:09:31.697Z,0
2018-12-17T03:10:31.937Z,0
2018-12-17T03:11:31.899Z,0
2018-12-17T03:12:31.879Z,0
2018-12-17T03:13:31.855Z,0
2018-12-17T03:14:31.860Z,0
2018-12-17T03:15:31.827Z,0
2018-12-17T03:16:31.590Z,0
2018-12-17T03:17:31.804Z,0
2018-12-17T03:18:31.789Z,0
2018-12-17T03:19:31.802Z,0
2018-12-17T03:20:31.744Z,0
2018-12-17T03:21:31.489Z,0
2018-12-17T03:22:31.798Z,0
2018-12-17T03:23:31.702Z,0
2018-12-17T03:24:31.687Z,0
2018-12-17T03:25:31.678Z,0
2018-12-17T03:26:31.651Z,0
2018-12-17T03:27:31.641Z,0
2018-12-17T03:28:31.659Z,0
2018-12-17T03:29:31.608Z,0
2018-12-17T03:30:31.622Z,0
2018-12-17T03:31:31.583Z,0
2018-12-17T03:32:31.576Z,0
2018-12-17T03:33:31.565Z,0
2018-12-17T03:34:31.525Z,0
2018-12-17T03:35:31.510Z,0
2018-12-17T03:36:31.503Z,0
2018-12-17T03:37:31.477Z,0
2018-12-17T03:38:31.473Z,0
2018-12-17T03:39:31.446Z,0
2018-12-17T03:40:31.437Z,0
2018-12-17T03:41:31.413Z,0
2018-12-17T03:42:31.399Z,0
2018-12-17T03:43:31.384Z,0
2018-12-17T03:44:31.371Z,0
2018-12-17T03:45:31.352Z,0
2018-12-17T03:46:31.343Z,0
2018-12-17T03:47:31.333Z,0
2018-12-17T03:48:31.301Z,0
2018-12-17T03:49:31.299Z,0
2018-12-17T03:50:31.274Z,0
2018-12-17T03:51:31.262Z,0
2018-12-17T03:52:31.245Z,0
2018-12-17T03:53:31.236Z,0
2018-12-17T03:54:31.211Z,0
2018-12-17T03:55:31.226Z,0
2018-12-17T03:56:31.181Z,0
2018-12-17T03:57:31.173Z,0
2018-12-17T03:58:31.157Z,0
2018-12-17T03:59:31.133Z,0
2018-12-17T04:00:31.129Z,0
2018-12-17T04:01:31.095Z,0
2018-12-17T04:02:31.096Z,0
2018-12-17T04:03:31.703Z,0
2018-12-17T04:04:31.072Z,0
2018-12-17T04:05:31.043Z,0
2018-12-17T04:06:31.022Z,0
2018-12-17T04:07:31.022Z,0
2018-12-17T04:08:30.992Z,0
2018-12-17T04:09:30.988Z,0
2018-12-17T04:10:30.960Z,0
2018-12-17T04:11:30.953Z,0
2018-12-17T04:12:30.929Z,0
2018-12-17T04:13:30.909Z,0
2018-12-17T04:14:30.915Z,0
2018-12-17T04:15:30.899Z,0
2018-12-17T04:16:30.868Z,0
2018-12-17T04:17:30.856Z,0
2018-12-17T04:18:30.831Z,0
2018-12-17T04:19:30.846Z,0
2018-12-17T04:20:30.801Z,0
2018-12-17T04:21:30.811Z,0
2018-12-17T04:22:30.776Z,0
2018-12-17T04:23:30.758Z,0
2018-12-17T04:24:30.744Z,0
2018-12-17T04:25:30.726Z,0
2018-12-17T04:26:30.717Z,0
2018-12-17T04:27:30.709Z,0
2018-12-17T04:28:30.701Z,0
2018-12-17T04:29:30.681Z,0
2018-12-17T04:30:30.648Z,0
2018-12-17T04:31:32.354Z,0
2018-12-17T04:32:30.631Z,0
2018-12-17T04:33:30.393Z,0
2018-12-17T04:34:30.587Z,0
2018-12-17T04:35:30.583Z,0
2018-12-17T04:36:30.567Z,0
2018-12-17T04:37:30.555Z,0
2018-12-17T04:38:30.524Z,0
2018-12-17T04:39:30.566Z,0
2018-12-17T04:40:30.505Z,0
2018-12-17T04:41:30.480Z,0
2018-12-17T04:42:30.517Z,0
2018-12-17T04:43:30.497Z,0
2018-12-17T04:44:29.945Z,0
2018-12-17T04:45:30.414Z,0
2018-12-17T04:46:30.402Z,0
2018-12-17T04:47:30.380Z,0
2018-12-17T04:48:30.369Z,0
2018-12-17T04:49:30.360Z,0
2018-12-17T04:50:30.340Z,0
2018-12-17T04:51:30.326Z,0
2018-12-17T04:52:30.313Z,0
2018-12-17T04:53:30.294Z,0
2018-12-17T04:54:30.336Z,0
2018-12-17T04:55:30.269Z,0
2018-12-17T04:56:30.253Z,0
2018-12-17T04:57:30.244Z,0
2018-12-17T04:58:30.218Z,0
2018-12-17T04:59:30.208Z,0
2018-12-17T05:00:29.943Z,0
2018-12-17T05:01:30.167Z,0
2018-12-17T05:02:30.159Z,0
2018-12-17T05:03:30.137Z,0
2018-12-17T05:04:30.141Z,0
2018-12-17T05:05:30.106Z,0
2018-12-17T05:06:30.092Z,0
2018-12-17T05:07:30.080Z,0
2018-12-17T05:08:30.067Z,0
2018-12-17T05:09:30.053Z,0
2018-12-17T05:10:30.030Z,0
2018-12-17T05:11:30.016Z,0
2018-12-17T05:12:30.000Z,0
2018-12-17T05:13:29.987Z,0
2018-12-17T05:14:29.990Z,0
2018-12-17T05:15:29.955Z,0
2018-12-17T05:16:29.942Z,0
2018-12-17T05:17:29.926Z,0
2018-12-17T05:18:29.914Z,0
2018-12-17T05:19:29.898Z,0
2018-12-17T05:20:29.886Z,0
2018-12-17T05:21:29.859Z,0
2018-12-17T05:22:29.844Z,0
2018-12-17T05:23:29.832Z,0
2018-12-17T05:24:29.821Z,0
2018-12-17T05:25:29.797Z,0
2018-12-17T05:26:29.862Z,0
2018-12-17T05:27:29.770Z,0
2018-12-17T05:28:29.762Z,0
2018-12-17T05:29:31.158Z,0
2018-12-17T05:30:29.733Z,0
2018-12-17T05:31:29.717Z,0
2018-12-17T05:32:31.346Z,0
2018-12-17T05:33:29.682Z,0
2018-12-17T05:34:29.688Z,0
2018-12-17T05:35:29.647Z,0
2018-12-17T05:36:29.634Z,0
2018-12-17T05:37:29.619Z,0
2018-12-17T05:38:29.606Z,0
2018-12-17T05:39:29.600Z,0
2018-12-17T05:40:29.579Z,0
2018-12-17T05:41:29.555Z,0
2018-12-17T05:42:29.547Z,0
2018-12-17T05:43:29.542Z,0
2018-12-17T05:44:29.521Z,0
2018-12-17T05:45:29.507Z,0
2018-12-17T05:46:29.489Z,0
2018-12-17T05:47:29.461Z,0
2018-12-17T05:48:29.446Z,0
2018-12-17T05:49:29.434Z,0
2018-12-17T05:50:29.431Z,0
2018-12-17T05:51:29.408Z,0
2018-12-17T05:52:29.401Z,0
2018-12-17T05:53:29.379Z,0
2018-12-17T05:54:29.361Z,0
2018-12-17T05:55:29.104Z,0
2018-12-17T05:56:29.333Z,0
2018-12-17T05:57:29.309Z,0
2018-12-17T05:58:29.386Z,0
2018-12-17T05:59:35.586Z,0
2018-12-17T06:00:29.264Z,0
2018-12-17T06:01:29.246Z,0
2018-12-17T06:02:29.235Z,0
2018-12-17T06:03:29.222Z,0
2018-12-17T06:04:29.218Z,0
2018-12-17T06:05:29.185Z,0
2018-12-17T06:06:29.171Z,0
2018-12-17T06:07:29.157Z,0
2018-12-17T06:08:29.147Z,0
2018-12-17T06:09:29.130Z,0
2018-12-17T06:10:28.875Z,0
2018-12-17T06:11:29.970Z,0
2018-12-17T06:12:29.079Z,0
2018-12-17T06:13:29.069Z,0
2018-12-17T06:14:29.046Z,0
2018-12-17T06:15:29.035Z,0
2018-12-17T06:16:29.037Z,0
2018-12-17T06:17:29.005Z,0
2018-12-17T06:18:28.986Z,0
2018-12-17T06:19:28.971Z,0
2018-12-17T06:20:28.958Z,0
2018-12-17T06:21:28.940Z,0
2018-12-17T06:22:28.923Z,0
2018-12-17T06:23:28.945Z,0
2018-12-17T06:24:28.898Z,0
2018-12-17T06:25:28.899Z,0
2018-12-17T06:26:28.862Z,0
2018-12-17T06:27:28.612Z,0
2018-12-17T06:28:28.913Z,0
2018-12-17T06:29:35.368Z,0
2018-12-17T06:30:28.804Z,0
2018-12-17T06:31:28.787Z,0
2018-12-17T06:32:28.618Z,0
2018-12-17T06:33:28.773Z,0
2018-12-17T06:34:28.756Z,0
2018-12-17T06:35:28.731Z,0
2018-12-17T06:36:28.736Z,0
2018-12-17T06:37:28.714Z,0
2018-12-17T06:38:28.678Z,0
2018-12-17T06:39:28.666Z,0
2018-12-17T06:40:28.662Z,0
2018-12-17T06:41:28.646Z,0
2018-12-17T06:42:28.383Z,0
2018-12-17T06:43:28.613Z,0
2018-12-17T06:44:28.589Z,0
2018-12-17T06:45:28.587Z,0
2018-12-17T06:46:28.565Z,0
2018-12-17T06:47:28.545Z,0
2018-12-17T06:48:28.532Z,0
2018-12-17T06:49:28.513Z,0
2018-12-17T06:50:28.502Z,0
2018-12-17T06:51:28.481Z,0
2018-12-17T06:52:28.470Z,0
2018-12-17T06:53:28.455Z,0
2018-12-17T06:54:28.447Z,0
2018-12-17T06:55:28.452Z,0
2018-12-17T06:56:28.407Z,0
2018-12-17T06:57:28.394Z,0
2018-12-17T06:58:28.382Z,0
2018-12-17T06:59:28.364Z,0
2018-12-17T07:00:28.361Z,0
2018-12-17T07:01:28.354Z,0
2018-12-17T07:02:28.080Z,0
2018-12-17T07:03:28.307Z,0
2018-12-17T07:04:28.298Z,0
2018-12-17T07:05:28.276Z,5
2018-12-17T07:06:28.257Z,5
2018-12-17T07:07:28.246Z,5
2018-12-17T07:08:28.229Z,5
2018-12-17T07:09:28.214Z,5
2018-12-17T07:10:28.220Z,5
2018-12-17T07:11:28.187Z,5
2018-12-17T07:12:28.180Z,5
2018-12-17T07:13:28.153Z,5
2018-12-17T07:14:28.182Z,5
2018-12-17T07:15:28.129Z,5
2018-12-17T07:16:28.117Z,5
2018-12-17T07:17:28.104Z,5
2018-12-17T07:18:28.078Z,5
2018-12-17T07:19:28.066Z,10
2018-12-17T07:20:28.055Z,10
2018-12-17T07:21:28.067Z,10
2018-12-17T07:22:28.022Z,10
2018-12-17T07:23:28.011Z,10
2018-12-17T07:24:27.992Z,10
2018-12-17T07:25:27.974Z,10
2018-12-17T07:26:28.838Z,10
2018-12-17T07:27:27.967Z,10
2018-12-17T07:28:27.949Z,15
2018-12-17T07:29:27.945Z,15
2018-12-17T07:30:27.905Z,15
2018-12-17T07:31:27.888Z,15
2018-12-17T07:32:28.196Z,15
2018-12-17T07:33:27.869Z,20
2018-12-17T07:34:27.845Z,20
2018-12-17T07:35:27.834Z,20
2018-12-17T07:36:27.822Z,20
2018-12-17T07:37:27.801Z,20
2018-12-17T07:38:27.786Z,25
2018-12-17T07:39:27.765Z,25
2018-12-17T07:40:27.753Z,25
2018-12-17T07:41:27.741Z,25
2018-12-17T07:42:27.727Z,30
2018-12-17T07:43:27.712Z,30
2018-12-17T07:44:27.719Z,30
2018-12-17T07:45:27.683Z,35
2018-12-17T07:46:27.661Z,35
2018-12-17T07:47:27.653Z,40
2018-12-17T07:48:27.635Z,40
2018-12-17T07:49:27.619Z,40
2018-12-17T07:50:27.603Z,45
2018-12-17T07:51:27.599Z,45
2018-12-17T07:52:27.576Z,45
2018-12-17T07:53:27.574Z,45
2018-12-17T07:54:27.545Z,45
2018-12-17T07:55:27.546Z,50
2018-12-17T07:56:27.524Z,50
2018-12-17T07:57:27.508Z,50
2018-12-17T07:58:27.492Z,55
2018-12-17T07:59:27.478Z,55
2018-12-17T08:00:27.467Z,60
2018-12-17T08:01:27.456Z,60
2018-12-17T08:02:27.447Z,60
2018-12-17T08:03:27.422Z,60
2018-12-17T08:04:27.425Z,65
2018-12-17T08:05:27.386Z,65
2018-12-17T08:06:27.380Z,70
2018-12-17T08:07:27.362Z,70
2018-12-17T08:08:27.352Z,70
2018-12-17T08:09:27.406Z,65
2018-12-17T08:10:27.320Z,65
2018-12-17T08:11:27.307Z,65
2018-12-17T08:12:27.290Z,65
2018-12-17T08:13:27.324Z,65
2018-12-17T08:14:27.271Z,65
2018-12-17T08:15:27.249Z,65
2018-12-17T08:16:27.243Z,60
2018-12-17T08:17:27.219Z,60
2018-12-17T08:18:27.209Z,65
2018-12-17T08:19:27.196Z,70
2018-12-17T08:20:27.190Z,75
2018-12-17T08:21:27.169Z,80
2018-12-17T08:22:26.907Z,80
2018-12-17T08:23:27.136Z,80
2018-12-17T08:24:28.598Z,80
2018-12-17T08:25:26.869Z,80
2018-12-17T08:26:27.097Z,80
2018-12-17T08:27:27.082Z,80
2018-12-17T08:28:27.070Z,80
2018-12-17T08:29:27.053Z,85
2018-12-17T08:30:27.043Z,85
2018-12-17T08:31:26.784Z,85
2018-12-17T08:32:27.009Z,90
2018-12-17T08:33:27.006Z,90
2018-12-17T08:34:27.184Z,95
2018-12-17T08:35:26.966Z,95
2018-12-17T08:36:26.959Z,95
2018-12-17T08:37:26.939Z,95
2018-12-17T08:38:26.935Z,95
2018-12-17T08:39:26.997Z,95
2018-12-17T08:40:26.897Z,95
2018-12-17T08:41:26.884Z,95
2018-12-17T08:42:26.873Z,100
2018-12-17T08:43:26.860Z,100
2018-12-17T08:44:26.842Z,95
2018-12-17T08:45:26.589Z,95
2018-12-17T08:46:26.817Z,95
2018-12-17T08:47:26.801Z,100
2018-12-17T08:48:26.785Z,100
2018-12-17T08:49:26.776Z,100
2018-12-17T08:50:26.760Z,100
2018-12-17T08:51:26.753Z,100
2018-12-17T08:52:26.731Z,100
2018-12-17T08:53:26.726Z,100
2018-12-17T08:54:26.715Z,105
2018-12-17T08:55:26.695Z,105
2018-12-17T08:56:26.685Z,105
2018-12-17T08:57:26.668Z,105
2018-12-17T08:58:26.653Z,105
2018-12-17T08:59:26.637Z,105
2018-12-17T09:00:26.627Z,105
2018-12-17T09:01:26.609Z,105
2018-12-17T09:02:26.599Z,105
2018-12-17T09:03:26.583Z,105
2018-12-17T09:04:26.651Z,105
2018-12-17T09:05:26.557Z,105
2018-12-17T09:06:26.543Z,110
2018-12-17T09:07:26.534Z,110
2018-12-17T09:08:26.513Z,110
2018-12-17T09:09:26.515Z,115
2018-12-17T09:10:26.486Z,115
2018-12-17T09:11:26.473Z,110
2018-12-17T09:12:26.464Z,115
2018-12-17T09:13:26.452Z,115
2018-12-17T09:14:26.443Z,115
2018-12-17T09:15:26.423Z,110
2018-12-17T09:16:26.411Z,110
2018-12-17T09:17:26.398Z,110
2018-12-17T09:18:26.382Z,110
2018-12-17T09:19:26.379Z,115
2018-12-17T09:20:26.366Z,115
2018-12-17T09:21:26.368Z,115
2018-12-17T09:22:26.330Z,115
2018-12-17T09:23:26.322Z,115
2018-12-17T09:24:26.305Z,115
2018-12-17T09:25:26.317Z,120
2018-12-17T09:26:26.331Z,120
2018-12-17T09:27:26.262Z,120
2018-12-17T09:28:26.248Z,120
2018-12-17T09:29:26.288Z,125
2018-12-17T09:30:28.098Z,120
2018-12-17T09:31:26.206Z,120
2018-12-17T09:32:26.203Z,125
2018-12-17T09:33:26.188Z,125
2018-12-17T09:34:26.174Z,125
2018-12-17T09:35:26.164Z,125
2018-12-17T09:36:26.148Z,130
2018-12-17T09:37:26.135Z,130
2018-12-17T09:38:26.117Z,125
2018-12-17T09:39:26.119Z,125
2018-12-17T09:40:26.091Z,125
2018-12-17T09:41:26.082Z,125
2018-12-17T09:42:26.074Z,125
2018-12-17T09:43:26.058Z,125
2018-12-17T09:44:26.049Z,125
2018-12-17T09:45:26.042Z,130
2018-12-17T09:46:26.019Z,130
2018-12-17T09:47:26.008Z,135
2018-12-17T09:48:25.995Z,140
2018-12-17T09:49:25.988Z,145
2018-12-17T09:50:26.318Z,150
2018-12-17T09:51:29.172Z,155
2018-12-17T09:52:25.950Z,155
2018-12-17T09:53:25.930Z,160
2018-12-17T09:54:25.919Z,155
2018-12-17T09:55:25.903Z,150
2018-12-17T09:56:25.892Z,155
2018-12-17T09:57:25.881Z,160
2018-12-17T09:58:25.878Z,165
2018-12-17T09:59:25.856Z,165
2018-12-17T10:00:32.402Z,160
2018-12-17T10:01:25.832Z,155
2018-12-17T10:02:25.817Z,155
2018-12-17T10:03:25.803Z,160
2018-12-17T10:04:25.804Z,160
2018-12-17T10:05:25.781Z,165
2018-12-17T10:06:25.770Z,175
2018-12-17T10:07:32.572Z,170
2018-12-17T10:08:25.742Z,175
2018-12-17T10:09:25.748Z,175
2018-12-17T10:10:25.715Z,175
2018-12-17T10:11:25.708Z,170
2018-12-17T10:12:25.696Z,170
2018-12-17T10:13:25.686Z,170
2018-12-17T10:14:25.681Z,170
2018-12-17T10:15:25.672Z,170
2018-12-17T10:16:25.645Z,165
2018-12-17T10:17:25.633Z,165
2018-12-17T10:18:25.620Z,165
2018-12-17T10:19:25.612Z,170
2018-12-17T10:20:25.615Z,175
2018-12-17T10:21:25.585Z,180
2018-12-17T10:22:25.575Z,175
2018-12-17T10:23:25.320Z,175
2018-12-17T10:24:25.547Z,175
2018-12-17T10:25:25.536Z,175
2018-12-17T10:26:25.525Z,175
2018-12-17T10:27:25.926Z,175
2018-12-17T10:28:25.500Z,175
2018-12-17T10:29:25.487Z,175
2018-12-17T10:30:32.260Z,170
2018-12-17T10:31:25.534Z,170
2018-12-17T10:32:25.452Z,175
2018-12-17T10:33:25.489Z,170
2018-12-17T10:34:25.434Z,170
2018-12-17T10:35:25.419Z,170
2018-12-17T10:36:25.404Z,165
2018-12-17T10:37:25.395Z,165
2018-12-17T10:38:25.145Z,165
2018-12-17T10:39:25.405Z,170
2018-12-17T10:40:25.379Z,170
2018-12-17T10:41:25.348Z,175
2018-12-17T10:42:25.344Z,175
2018-12-17T10:43:25.347Z,175
2018-12-17T10:44:25.365Z,175
2018-12-17T10:45:25.304Z,175
2018-12-17T10:46:25.291Z,175
2018-12-17T10:47:25.289Z,175
2018-12-17T10:48:25.264Z,175
2018-12-17T10:49:25.254Z,175
2018-12-17T10:50:25.244Z,180
2018-12-17T10:51:25.226Z,185
2018-12-17T10:52:25.216Z,180
2018-12-17T10:53:25.207Z,175
2018-12-17T10:54:25.215Z,175
2018-12-17T10:55:25.182Z,175
2018-12-17T10:56:25.173Z,170
2018-12-17T10:57:25.153Z,160
2018-12-17T10:58:25.152Z,165
2018-12-17T10:59:25.140Z,165
2018-12-17T11:00:25.137Z,160
2018-12-17T11:01:25.110Z,165
2018-12-17T11:02:25.099Z,165
2018-12-17T11:03:25.085Z,160
2018-12-17T11:04:25.082Z,155
2018-12-17T11:05:25.072Z,155
2018-12-17T11:06:25.051Z,155
2018-12-17T11:07:25.046Z,150
2018-12-17T11:08:25.029Z,140
2018-12-17T11:09:25.015Z,140
2018-12-17T11:10:25.011Z,140
2018-12-17T11:11:24.994Z,130
2018-12-17T11:12:24.987Z,125
2018-12-17T11:13:24.981Z,120
2018-12-17T11:14:24.970Z,120
2018-12-17T11:15:24.957Z,120
2018-12-17T11:16:24.943Z,120
2018-12-17T11:17:24.950Z,120
2018-12-17T11:18:24.933Z,120
2018-12-17T11:19:24.902Z,125
2018-12-17T11:20:24.888Z,120
2018-12-17T11:21:24.949Z,115
2018-12-17T11:22:24.869Z,115
2018-12-17T11:23:25.252Z,115
2018-12-17T11:24:24.940Z,105
2018-12-17T11:25:24.834Z,100
2018-12-17T11:26:24.822Z,110
2018-12-17T11:27:24.820Z,115
2018-12-17T11:28:24.801Z,125
2018-12-17T11:29:24.793Z,145
2018-12-17T11:30:24.781Z,160
2018-12-17T11:31:24.765Z,170
2018-12-17T11:32:24.755Z,170
2018-12-17T11:33:24.782Z,165
2018-12-17T11:34:24.977Z,160
2018-12-17T11:35:24.712Z,155
2018-12-17T11:36:24.711Z,145
2018-12-17T11:37:24.690Z,140
2018-12-17T11:38:24.678Z,135
2018-12-17T11:39:24.666Z,125
2018-12-17T11:40:24.659Z,125
2018-12-17T11:41:24.644Z,125
2018-12-17T11:42:24.634Z,125
2018-12-17T11:43:24.676Z,130
2018-12-17T11:44:24.609Z,140
2018-12-17T11:45:24.605Z,145
2018-12-17T11:46:24.587Z,150
2018-12-17T11:47:24.573Z,150
2018-12-17T11:48:24.565Z,150
2018-12-17T11:49:24.556Z,155
2018-12-17T11:50:24.542Z,160
2018-12-17T11:51:24.525Z,160
2018-12-17T11:52:24.516Z,160
2018-12-17T11:53:24.515Z,160
2018-12-17T11:54:24.492Z,160
2018-12-17T11:55:24.477Z,155
2018-12-17T11:56:24.476Z,155
2018-12-17T11:57:24.506Z,150
2018-12-17T11:58:24.449Z,150
2018-12-17T11:59:24.435Z,145
2018-12-17T12:00:24.429Z,145
2018-12-17T12:01:24.412Z,140
2018-12-17T12:02:24.402Z,135
2018-12-17T12:03:24.383Z,130
2018-12-17T12:04:24.374Z,130
2018-12-17T12:05:24.618Z,125
2018-12-17T12:06:24.355Z,120
2018-12-17T12:07:24.342Z,115
2018-12-17T12:08:24.331Z,115
2018-12-17T12:09:25.627Z,110
2018-12-17T12:10:24.397Z,115
2018-12-17T12:11:24.291Z,115
2018-12-17T12:12:24.280Z,125
2018-12-17T12:13:24.277Z,130
2018-12-17T12:14:24.256Z,130
2018-12-17T12:15:24.248Z,130
2018-12-17T12:16:24.249Z,130
2018-12-17T12:17:24.239Z,125
2018-12-17T12:18:24.213Z,130
2018-12-17T12:19:24.196Z,135
2018-12-17T12:20:24.182Z,140
2018-12-17T12:21:24.172Z,150
2018-12-17T12:22:24.163Z,150
2018-12-17T12:23:24.224Z,140
2018-12-17T12:24:24.147Z,140
2018-12-17T12:25:24.195Z,145
2018-12-17T12:26:24.117Z,155
2018-12-17T12:27:24.104Z,150
2018-12-17T12:28:24.091Z,150
2018-12-17T12:29:24.077Z,150
2018-12-17T12:30:24.067Z,150
2018-12-17T12:31:24.055Z,150
2018-12-17T12:32:24.046Z,150
2018-12-17T12:33:24.040Z,145
2018-12-17T12:34:24.020Z,140
2018-12-17T12:35:24.009Z,135
2018-12-17T12:36:24.001Z,130
2018-12-17T12:37:23.992Z,130
2018-12-17T12:38:23.971Z,130
2018-12-17T12:39:23.958Z,125
2018-12-17T12:40:23.949Z,125
2018-12-17T12:41:23.937Z,120
2018-12-17T12:42:23.922Z,120
2018-12-17T12:43:23.915Z,115
2018-12-17T12:44:23.914Z,120
2018-12-17T12:45:23.887Z,130
2018-12-17T12:46:23.896Z,130
2018-12-17T12:47:23.876Z,135
2018-12-17T12:48:23.863Z,135
2018-12-17T12:49:23.852Z,125
2018-12-17T12:50:23.830Z,120
2018-12-17T12:51:23.816Z,120
2018-12-17T12:52:23.804Z,115
2018-12-17T12:53:23.796Z,115
2018-12-17T12:54:23.782Z,110
2018-12-17T12:55:23.768Z,105
2018-12-17T12:56:23.760Z,100
2018-12-17T12:57:23.752Z,95
2018-12-17T12:58:23.735Z,95
2018-12-17T12:59:23.720Z,90
2018-12-17T13:00:23.715Z,80
2018-12-17T13:01:23.704Z,85
2018-12-17T13:02:23.686Z,80
2018-12-17T13:03:23.674Z,75
2018-12-17T13:04:23.672Z,70
2018-12-17T13:05:23.660Z,75
2018-12-17T13:06:23.658Z,80
2018-12-17T13:07:23.884Z,85
2018-12-17T13:08:23.610Z,85
2018-12-17T13:09:23.639Z,80
2018-12-17T13:10:23.596Z,75
2018-12-17T13:11:23.578Z,75
2018-12-17T13:12:23.566Z,75
2018-12-17T13:13:23.555Z,75
2018-12-17T13:14:23.545Z,80
2018-12-17T13:15:23.529Z,80
2018-12-17T13:16:23.521Z,80
2018-12-17T13:17:23.503Z,80
2018-12-17T13:18:23.494Z,80
2018-12-17T13:19:23.514Z,80
2018-12-17T13:20:23.490Z,75
2018-12-17T13:21:23.534Z,75
2018-12-17T13:22:23.441Z,75
2018-12-17T13:23:23.435Z,70
2018-12-17T13:24:23.419Z,65
2018-12-17T13:25:23.412Z,65
2018-12-17T13:26:23.390Z,60
2018-12-17T13:27:23.387Z,60
2018-12-17T13:28:23.398Z,65
2018-12-17T13:29:23.355Z,65
2018-12-17T13:30:23.347Z,65
2018-12-17T13:31:24.261Z,60
2018-12-17T13:32:23.324Z,60
2018-12-17T13:33:23.311Z,60
2018-12-17T13:34:23.298Z,60
2018-12-17T13:35:23.305Z,65
2018-12-17T13:36:24.290Z,70
2018-12-17T13:37:23.256Z,70
2018-12-17T13:38:23.238Z,70
2018-12-17T13:39:23.232Z,65
2018-12-17T13:40:23.216Z,65
2018-12-17T13:41:23.201Z,60
2018-12-17T13:42:24.343Z,55
2018-12-17T13:43:23.192Z,55
2018-12-17T13:44:23.163Z,55
2018-12-17T13:45:23.160Z,55
2018-12-17T13:46:23.144Z,55
2018-12-17T13:47:22.895Z,55
2018-12-17T13:48:23.604Z,55
2018-12-17T13:49:23.114Z,55
2018-12-17T13:50:29.767Z,60
2018-12-17T13:51:23.072Z,55
2018-12-17T13:52:23.078Z,55
2018-12-17T13:53:23.047Z,60
2018-12-17T13:54:23.046Z,55
2018-12-17T13:55:23.076Z,55
2018-12-17T13:56:23.011Z,55
2018-12-17T13:57:22.996Z,50
2018-12-17T13:58:22.985Z,50
2018-12-17T13:59:22.976Z,50
2018-12-17T14:00:22.961Z,50
2018-12-17T14:01:28.942Z,50
2018-12-17T14:02:22.930Z,45
2018-12-17T14:03:22.922Z,45
2018-12-17T14:04:22.907Z,45
2018-12-17T14:05:22.892Z,45
2018-12-17T14:06:24.455Z,45
2018-12-17T14:07:22.867Z,45
2018-12-17T14:08:22.855Z,40
2018-12-17T14:09:22.843Z,40
2018-12-17T14:10:22.856Z,40
2018-12-17T14:11:22.817Z,40
2018-12-17T14:12:22.812Z,40
2018-12-17T14:13:22.793Z,40
2018-12-17T14:14:22.781Z,40
2018-12-17T14:15:23.971Z,35
2018-12-17T14:16:22.830Z,35
2018-12-17T14:17:22.746Z,35
2018-12-17T14:18:22.732Z,35
2018-12-17T14:19:22.715Z,35
2018-12-17T14:20:22.704Z,35
2018-12-17T14:21:23.281Z,30
2018-12-17T14:22:22.674Z,30